AirNav   Everest Fuels
 
 562 users online  

VT47 Miller Farm Airfield
Vernon, Vermont, USA

GOING TO VERNON?


FAA INFORMATION EFFECTIVE 19 MAY 2022

Location

FAA Identifier: VT47
Lat/Long: 42-46-43.0000N 072-31-40.0000W
42-46.716667N 072-31.666667W
42.7786111,-72.5277778
(estimated)
Elevation: 285 ft. / 87 m (estimated)
From city: 1 mile NW of VERNON, VT
Time zone: UTC -4 (UTC -5 during Standard Time)
Zip code: 05354

Airport Operations

Airport use: Private use. Permission required prior to landing
Activation date: 02/2003
Control tower: no
ARTCC: BOSTON CENTER
FSS: BURLINGTON FLIGHT SERVICE STATION
Attendance: UNATNDD
Segmented circle: no

Airport Communications

WX AWOS-3PT at EEN (13 nm NE): 119.025 (603-358-6424)
WX ASOS at ORE (16 nm SE): 135.675 (978-544-6774)

Nearby radio navigation aids

VOR radial/distance  VOR name  Freq  Var
GDMr318/25.0GARDNER VOR/DME110.6014W
CTRr046/34.7CHESTER VOR/DME115.1013W
BAFr027/37.9BARNES VORTAC113.0014W
CAMr124/38.1CAMBRIDGE VOR/DME115.0014W

 
NDB name  Hdg/Dist  Freq  Var  ID
CLAREMONT207/36.123316WCNH -.-. -. ....

Airport Services

Runway Information

Runway 18/36

Dimensions: 1800 x 100 ft. / 549 x 30 m
Surface: turf
RUNWAY 18  RUNWAY 36
Traffic pattern: leftleft

Airport Ownership and Management from official FAA records

Ownership: Privately-owned
Owner: PETER MILLER
1732 FT BRIDGEMAN RD
VERNON, VT 05354
Phone 802-380-3862
Manager: PETER MILLER
1732 FT BRIDGEMAN RD
VERNON, VT 05354
Phone 802-380-3862

Airport Operational Statistics

Aircraft based on the field: 1
Single engine airplanes: 1
    

Additional Remarks

286 FT TOWER 3/5 NM SE OF RY.
FOR CD CTC BOSTON ARTCC AT 603-879-6859.

Instrument Procedures

There are no published instrument procedures at VT47.

Some nearby airports with instrument procedures:

0B5 - Turners Falls Airport (11 nm S)
KEEN - Dillant/Hopkins Airport (13 nm NE)
KORE - Orange Municipal Airport (16 nm SE)
4V8 - Deerfield Valley Regional Airport (17 nm NW)
KAFN - Jaffrey/Silver Ranch Airport (23 nm E)
 
Loc | Ops | Rwys | IFR | FBO | Links
Com | Nav | Svcs | Stats | Notes
Area around VT47 (Miller Farm Airfield)
 
Road maps at: MapQuest Bing Google
 
Aerial photo
No photo
 
Sectional chart

 
Airport distance calculator
Flying to Miller Farm Airfield? Find the distance to fly.

From to VT47

Sunrise and sunset
Times for 19-May-2022
 Local
(UTC-4)
 Zulu
(UTC)
Morning civil twilight04:5208:52
Sunrise05:2509:25
Sunset20:0900:09
Evening civil twilight20:4200:42

Current date and time
Zulu (UTC)  19-May-2022 06:45:45
Local (UTC-4)  19-May-2022 02:45:45
 
METAR
KEEN 
13nm NE 
190556Z AUTO 15003KT 10SM OVC100 09/03 A2989 RMK AO2 RAE11 SLP127 P0000 60000 T00940033 10144 20072 50004 $
KORE 
17nm SE 
190552Z AUTO 29006KT 10SM FEW060 OVC085 11/04 A2989 RMK AO2 SLP121 T01060044 10172 20100 50001
KAFN 
23nm E 
190552Z AUTO 20003KT 10SM OVC090 10/06 A2990 RMK AO2 SLP128 T01000056 10156 20078 50004
TAF
KCEF 
35nm S 
190200Z 1902/2008 VRB06KT 9999 BKN120 OVC180 QNH2982INS BECMG 1906/1907 VRB06KT 9999 BKN060 OVC120 QNH2980INS BECMG 1908/1909 VRB06KT 8000 -RA BR FEW006 BKN025 OVC060 QNH2976INS BECMG 1911/1912 16009KT 3200 -RA BR OVC006 QNH2970INS BECMG 1917/1918 18012KT 9999 VCSH SCT006 BKN009 OVC013 510204 QNH2965INS BECMG 1920/1921 20009KT 9999 NSW SCT009 BKN016 510204 QNH2965INS BECMG 2003/2004 VRB06KT 6000 BR SCT020 BKN220 QNH2979INS TX18/1921Z TN10/1909Z LAST NO AMDS AFT 1903 NEXT 1911
KBAF 
38nm S 
190528Z 1906/2006 00000KT P6SM -RA OVC090 FM191000 13003KT P6SM -RA OVC030 FM191300 14004KT 4SM -RA BR OVC015 FM191500 17005KT 3SM BR VCSH OVC008 FM192200 19004KT 5SM BR BKN010 FM200400 26003KT P6SM SCT140
KPSF 
39nm SW 
190524Z 1906/2006 VRB04KT P6SM BKN070 TEMPO 1907/1910 5SM -SHRA BR OVC025 FM191000 14003KT 5SM -SHRA BR OVC015 TEMPO 1910/1914 3SM -SHRA BR BKN008 OVC012 FM191400 17007KT P6SM VCSH OVC012 FM200000 27003KT P6SM FEW015 FM200300 00000KT 2SM BR BKN005
KORH 
42nm SE 
190528Z 1906/2006 00000KT P6SM VCSH OVC100 FM191000 23003KT P6SM -RA OVC050 FM191200 16004KT P6SM -RA OVC030 FM191600 16006KT 3SM BR VCSH OVC008 FM200400 27005KT 1 1/2SM BR BKN090 FM200500 27005KT 6SM BR SCT100
NOTAMs
Click for the latest NOTAMs
NOTAMs are issued by the DoD/FAA and will open in a separate window not controlled by AirNav.

 

 
 

Would you like to see your business listed on this page?

 If your business provides an interesting product or service to pilots, flight crews, aircraft, or users of the Miller Farm Airfield, you should consider listing it here.  To start the listing process, click on the button below
 
Add a business
 

Other Pages about Miller Farm Airfield

Update a link
 
Copyright © AirNav, LLC. All rights reserved. Privacy Policy  Contact